Time;durP1;ratioP1;P1;durP2;ratioP2;P2;SDS_P1;SDS_P2;PMS_P1;PMS_P2;Temp;Humidity;BMP_temperature;BMP_pressure;BME280_temperature;BME280_humidity;BME280_pressure;Samples;Min_cycle;Max_cycle;Signal;HPM_P1;HPM_P2
2022/11/15 00:00:11;;;;;;;28.37;22.40;;;;;;;;;;5072231;28;20481;-74
2022/11/15 00:03:11;;;;;;;29.13;22.80;;;;;;;;;;5067270;28;21076;-74
2022/11/15 00:06:03;;;;;;;27.97;22.60;;;;;;;;;;5072994;28;20449;-74
2022/11/15 00:08:52;;;;;;;28.07;21.17;;;;;;;;;;5076457;28;20465;-73
2022/11/15 00:11:45;;;;;;;30.67;22.63;;;;;;;;;;5071301;28;20474;-72
2022/11/15 00:14:38;;;;;;;28.50;24.10;;;;;;;;;;5078151;28;20442;-74
2022/11/15 00:17:27;;;;;;;29.90;22.63;;;;;;;;;;5079018;28;20453;-74
2022/11/15 00:20:15;;;;;;;29.73;21.73;;;;;;;;;;5074779;28;20529;-74
2022/11/15 00:23:12;;;;;;;26.27;21.40;;;;;;;;;;5070972;28;20488;-73
2022/11/15 00:26:05;;;;;;;26.73;21.50;;;;;;;;;;5071266;28;20456;-72
2022/11/15 00:29:01;;;;;;;31.30;23.23;;;;;;;;;;5061247;28;20470;-74
2022/11/15 00:31:52;;;;;;;29.43;22.87;;;;;;;;;;5067971;28;21038;-72
2022/11/15 00:34:47;;;;;;;28.50;22.83;;;;;;;;;;5070894;28;20472;-73
2022/11/15 00:37:40;;;;;;;29.50;23.00;;;;;;;;;;5071633;28;20445;-73
2022/11/15 00:40:33;;;;;;;29.70;21.70;;;;;;;;;;5070497;28;20488;-73
2022/11/15 00:43:24;;;;;;;30.37;22.13;;;;;;;;;;5070578;28;20974;-73
2022/11/15 00:46:16;;;;;;;27.93;22.40;;;;;;;;;;5076386;28;20456;-73
2022/11/15 00:49:07;;;;;;;28.87;22.43;;;;;;;;;;5076598;28;20450;-73
2022/11/15 00:51:58;;;;;;;27.03;21.03;;;;;;;;;;5074662;28;20478;-73
2022/11/15 00:54:47;;;;;;;28.20;22.03;;;;;;;;;;5075618;28;20462;-73
2022/11/15 00:57:42;;;;;;;29.70;21.97;;;;;;;;;;5073294;28;20445;-73
2022/11/15 01:00:36;;;;;;;26.30;22.27;;;;;;;;;;5073251;28;20838;-73
2022/11/15 01:03:29;;;;;;;27.77;20.90;;;;;;;;;;5074082;28;20977;-74
2022/11/15 01:06:23;;;;;;;30.70;22.50;;;;;;;;;;5071643;28;20474;-74
2022/11/15 01:09:13;;;;;;;30.50;22.30;;;;;;;;;;5072491;28;20467;-74
2022/11/15 01:12:03;;;;;;;30.43;22.50;;;;;;;;;;5074025;28;20480;-73
2022/11/15 01:14:58;;;;;;;28.80;21.73;;;;;;;;;;5081200;28;20468;-74
2022/11/15 01:17:51;;;;;;;24.23;20.30;;;;;;;;;;5079722;28;20462;-74
2022/11/15 01:20:46;;;;;;;27.63;21.23;;;;;;;;;;5078807;28;21397;-73
2022/11/15 01:23:39;;;;;;;28.50;20.57;;;;;;;;;;5081253;28;20459;-74
2022/11/15 01:26:29;;;;;;;27.17;20.87;;;;;;;;;;5076765;28;20457;-74
2022/11/15 01:29:27;;;;;;;25.67;20.70;;;;;;;;;;5080627;28;20450;-73
2022/11/15 01:32:16;;;;;;;26.97;22.00;;;;;;;;;;5079283;28;20473;-74
2022/11/15 01:35:10;;;;;;;28.87;21.50;;;;;;;;;;5070014;28;22362;-74
2022/11/15 01:38:07;;;;;;;25.83;21.50;;;;;;;;;;5079024;28;20449;-74
2022/11/15 01:40:59;;;;;;;28.70;21.70;;;;;;;;;;5076118;28;21030;-74
2022/11/15 01:43:48;;;;;;;28.47;20.83;;;;;;;;;;5077632;28;20464;-74
2022/11/15 01:46:38;;;;;;;27.83;22.27;;;;;;;;;;5077432;28;20457;-73
2022/11/15 01:49:32;;;;;;;26.17;21.97;;;;;;;;;;5080410;28;20454;-73
2022/11/15 01:52:23;;;;;;;27.03;21.40;;;;;;;;;;5078338;28;20485;-74
2022/11/15 01:55:19;;;;;;;29.67;22.23;;;;;;;;;;5077419;28;20475;-74
2022/11/15 01:58:08;;;;;;;26.10;20.40;;;;;;;;;;5072893;28;20471;-74
2022/11/15 02:00:59;;;;;;;26.20;21.47;;;;;;;;;;5078211;28;20484;-74
2022/11/15 02:03:53;;;;;;;27.33;20.37;;;;;;;;;;5076821;28;20509;-74
2022/11/15 02:06:48;;;;;;;26.70;21.47;;;;;;;;;;5075875;28;21117;-74
2022/11/15 02:09:37;;;;;;;26.03;20.43;;;;;;;;;;5076019;28;21154;-73
2022/11/15 02:12:32;;;;;;;23.07;19.30;;;;;;;;;;5073529;28;21019;-73
2022/11/15 02:15:30;;;;;;;24.50;19.90;;;;;;;;;;5076886;28;20513;-74
2022/11/15 02:18:25;;;;;;;22.83;19.50;;;;;;;;;;5071654;28;20453;-74
2022/11/15 02:21:21;;;;;;;25.50;19.97;;;;;;;;;;5075765;28;20484;-73
2022/11/15 02:24:25;;;;;;;25.17;20.60;;;;;;;;;;5076997;28;20490;-74
2022/11/15 02:27:39;;;;;;;24.77;20.73;;;;;;;;;;5073088;28;21087;-73
2022/11/15 02:30:41;;;;;;;26.50;20.97;;;;;;;;;;5074364;28;20453;-74
2022/11/15 02:33:33;;;;;;;23.43;19.50;;;;;;;;;;5075264;28;20809;-74
2022/11/15 02:36:29;;;;;;;23.90;19.63;;;;;;;;;;5068334;28;20454;-73
2022/11/15 02:39:25;;;;;;;25.20;19.83;;;;;;;;;;5072082;28;20446;-73
2022/11/15 02:45:23;;;;;;;25.93;20.20;;;;;;;;;;5077515;28;20484;-73
2022/11/15 02:48:13;;;;;;;25.60;20.07;;;;;;;;;;5075179;28;20987;-74
2022/11/15 02:51:05;;;;;;;26.30;19.47;;;;;;;;;;5075612;28;21017;-72
2022/11/15 02:54:01;;;;;;;24.37;19.70;;;;;;;;;;5070808;28;20453;-74
2022/11/15 02:56:59;;;;;;;25.30;20.00;;;;;;;;;;5069720;28;20462;-73
2022/11/15 03:00:03;;;;;;;22.10;18.47;;;;;;;;;;5073878;28;20925;-73
2022/11/15 03:03:10;;;;;;;24.53;19.87;;;;;;;;;;5072743;28;20512;-73
2022/11/15 03:06:04;;;;;;;21.97;18.37;;;;;;;;;;5079483;28;20837;-74
2022/11/15 03:09:09;;;;;;;21.77;18.77;;;;;;;;;;5074214;28;20455;-72
2022/11/15 03:15:21;;;;;;;24.73;20.13;;;;;;;;;;5066971;28;20452;-74
2022/11/15 03:18:14;;;;;;;21.67;18.40;;;;;;;;;;5062996;28;20682;-74
2022/11/15 03:21:11;;;;;;;25.03;19.80;;;;;;;;;;5056385;28;20477;-74
2022/11/15 03:24:07;;;;;;;25.50;19.43;;;;;;;;;;5060843;28;20854;-74
2022/11/15 03:26:57;;;;;;;23.40;18.57;;;;;;;;;;5067544;28;20454;-74
2022/11/15 03:29:49;;;;;;;25.23;19.00;;;;;;;;;;5072177;28;20803;-73
2022/11/15 03:32:46;;;;;;;23.80;18.40;;;;;;;;;;5076745;28;20466;-74
2022/11/15 03:35:37;;;;;;;24.37;19.10;;;;;;;;;;5069287;28;20458;-74
2022/11/15 03:38:29;;;;;;;20.17;16.73;;;;;;;;;;5056196;28;20448;-73
2022/11/15 03:41:23;;;;;;;22.70;18.67;;;;;;;;;;5060480;28;20489;-74
2022/11/15 03:44:19;;;;;;;21.70;18.40;;;;;;;;;;5050278;28;20491;-71
2022/11/15 03:47:17;;;;;;;22.73;17.60;;;;;;;;;;5061957;28;20464;-73
2022/11/15 03:50:09;;;;;;;24.73;18.57;;;;;;;;;;5067394;28;20462;-73
2022/11/15 03:53:05;;;;;;;22.53;17.43;;;;;;;;;;5060224;28;20821;-72
2022/11/15 03:55:58;;;;;;;20.33;17.17;;;;;;;;;;5064285;28;20450;-73
2022/11/15 03:58:47;;;;;;;22.30;17.80;;;;;;;;;;5061683;28;20453;-73
2022/11/15 04:01:38;;;;;;;22.93;17.70;;;;;;;;;;5055699;28;21875;-74
2022/11/15 04:04:29;;;;;;;22.00;16.57;;;;;;;;;;5069687;28;20453;-73
2022/11/15 04:07:26;;;;;;;20.13;16.60;;;;;;;;;;5070969;28;20449;-73
2022/11/15 04:10:15;;;;;;;19.33;16.90;;;;;;;;;;5052944;28;20457;-73
2022/11/15 04:13:09;;;;;;;22.27;17.93;;;;;;;;;;5061138;28;20835;-72
2022/11/15 04:16:04;;;;;;;18.37;15.97;;;;;;;;;;5053318;28;20480;-74
2022/11/15 04:25:32;;;;;;;20.50;17.30;;;;;;;;;;5010842;28;20452;-74
2022/11/15 04:28:21;;;;;;;22.33;16.77;;;;;;;;;;5065966;28;20748;-74
2022/11/15 04:31:10;;;;;;;19.63;16.53;;;;;;;;;;5070149;28;20501;-74
2022/11/15 04:34:05;;;;;;;20.53;17.17;;;;;;;;;;5072430;28;20828;-73
2022/11/15 04:37:15;;;;;;;21.03;16.80;;;;;;;;;;5067907;28;20610;-74
2022/11/15 04:40:10;;;;;;;21.00;16.90;;;;;;;;;;5065621;28;20552;-73
2022/11/15 04:43:09;;;;;;;17.90;15.60;;;;;;;;;;5075040;28;20477;-74
2022/11/15 04:46:02;;;;;;;22.13;16.20;;;;;;;;;;5077052;28;20458;-74
2022/11/15 04:48:51;;;;;;;20.07;17.50;;;;;;;;;;5073022;28;20450;-74
2022/11/15 04:51:49;;;;;;;20.97;17.40;;;;;;;;;;5071057;28;20473;-73
2022/11/15 04:54:41;;;;;;;18.30;15.90;;;;;;;;;;5074347;28;20454;-74
2022/11/15 04:57:36;;;;;;;18.90;16.17;;;;;;;;;;5073142;28;20948;-72
2022/11/15 05:00:36;;;;;;;20.17;16.43;;;;;;;;;;5071600;28;20461;-74
2022/11/15 05:06:39;;;;;;;19.97;16.77;;;;;;;;;;5073096;28;20500;-74
2022/11/15 05:09:31;;;;;;;20.33;16.83;;;;;;;;;;5073564;28;20946;-73
2022/11/15 05:12:19;;;;;;;19.97;16.90;;;;;;;;;;5072591;28;20473;-73
2022/11/15 05:15:14;;;;;;;21.40;17.60;;;;;;;;;;5073408;28;20481;-73
2022/11/15 05:18:08;;;;;;;22.30;18.03;;;;;;;;;;5069025;28;20843;-72
2022/11/15 05:21:04;;;;;;;19.13;16.37;;;;;;;;;;5074936;28;20510;-73
2022/11/15 05:24:00;;;;;;;18.77;16.17;;;;;;;;;;5071835;28;20499;-73
2022/11/15 05:26:51;;;;;;;18.60;15.83;;;;;;;;;;5075568;28;21719;-73
2022/11/15 05:29:53;;;;;;;19.40;16.53;;;;;;;;;;5072494;28;20446;-74
2022/11/15 05:32:42;;;;;;;20.20;16.27;;;;;;;;;;5060718;28;20464;-73
2022/11/15 05:35:38;;;;;;;17.70;15.20;;;;;;;;;;5069943;28;20449;-74
2022/11/15 05:38:34;;;;;;;16.50;14.70;;;;;;;;;;5069802;28;20841;-73
2022/11/15 05:41:27;;;;;;;20.37;17.07;;;;;;;;;;5075082;28;20492;-73
2022/11/15 05:44:19;;;;;;;23.60;16.23;;;;;;;;;;5069776;28;20485;-72
2022/11/15 05:47:13;;;;;;;18.23;15.20;;;;;;;;;;5076029;28;20449;-73
2022/11/15 05:50:05;;;;;;;18.87;16.07;;;;;;;;;;5073589;28;20456;-74
2022/11/15 05:52:55;;;;;;;18.70;15.90;;;;;;;;;;5072282;28;20474;-73
2022/11/15 05:55:54;;;;;;;19.03;15.80;;;;;;;;;;5068152;28;20992;-72
2022/11/15 05:58:46;;;;;;;20.93;16.03;;;;;;;;;;5064408;28;20480;-73
2022/11/15 06:01:47;;;;;;;21.87;16.10;;;;;;;;;;5066828;28;20596;-73
2022/11/15 06:04:35;;;;;;;19.97;15.67;;;;;;;;;;5061932;28;21306;-74
2022/11/15 06:07:34;;;;;;;19.60;16.30;;;;;;;;;;5070298;28;20959;-74
2022/11/15 06:10:24;;;;;;;18.57;16.33;;;;;;;;;;5058158;28;20453;-74
2022/11/15 06:13:17;;;;;;;20.40;16.03;;;;;;;;;;5064847;28;20897;-74
2022/11/15 06:16:13;;;;;;;20.20;17.40;;;;;;;;;;5052245;28;20481;-72
2022/11/15 06:19:01;;;;;;;20.80;16.20;;;;;;;;;;5065167;28;20441;-75
2022/11/15 06:21:54;;;;;;;19.37;15.67;;;;;;;;;;5057617;28;20477;-74
2022/11/15 06:24:43;;;;;;;19.17;14.97;;;;;;;;;;5068467;28;20484;-73
2022/11/15 06:27:40;;;;;;;18.47;14.87;;;;;;;;;;5075309;28;20465;-73
2022/11/15 06:30:34;;;;;;;18.83;16.10;;;;;;;;;;5062912;28;20449;-73
2022/11/15 06:33:27;;;;;;;22.93;16.73;;;;;;;;;;5075244;28;21081;-74
2022/11/15 06:36:22;;;;;;;18.07;15.70;;;;;;;;;;5074784;28;20457;-74
2022/11/15 06:39:20;;;;;;;19.47;16.30;;;;;;;;;;5071367;28;20452;-73
2022/11/15 06:42:17;;;;;;;18.47;16.30;;;;;;;;;;5079157;28;20478;-74
2022/11/15 06:45:10;;;;;;;20.27;17.33;;;;;;;;;;5074271;28;20459;-74
2022/11/15 06:48:03;;;;;;;19.40;16.20;;;;;;;;;;5074309;28;20449;-74
2022/11/15 06:50:53;;;;;;;21.80;17.03;;;;;;;;;;5074756;28;20591;-74
2022/11/15 06:53:53;;;;;;;18.30;15.77;;;;;;;;;;5077215;28;20594;-73
2022/11/15 06:56:46;;;;;;;18.60;15.70;;;;;;;;;;5081717;28;20458;-74
2022/11/15 06:59:39;;;;;;;20.90;17.10;;;;;;;;;;5078707;28;20449;-72
2022/11/15 07:02:38;;;;;;;19.90;16.60;;;;;;;;;;5078018;28;20889;-73
2022/11/15 07:05:28;;;;;;;20.03;16.47;;;;;;;;;;5077436;28;20852;-73
2022/11/15 07:08:17;;;;;;;19.17;15.70;;;;;;;;;;5070664;28;20462;-74
2022/11/15 07:11:08;;;;;;;18.60;15.87;;;;;;;;;;5071960;28;20478;-73
2022/11/15 07:14:01;;;;;;;19.83;16.37;;;;;;;;;;5081680;28;20461;-74
2022/11/15 07:16:56;;;;;;;18.23;15.00;;;;;;;;;;5077163;28;20453;-74
2022/11/15 07:19:56;;;;;;;17.70;15.63;;;;;;;;;;5076456;28;20484;-72
2022/11/15 07:22:48;;;;;;;21.20;16.57;;;;;;;;;;5075024;28;20481;-74
2022/11/15 07:25:36;;;;;;;20.73;16.30;;;;;;;;;;5077296;28;20481;-73
2022/11/15 07:28:28;;;;;;;22.70;17.50;;;;;;;;;;5078222;28;20943;-72
2022/11/15 07:31:19;;;;;;;18.90;16.77;;;;;;;;;;5079288;28;21039;-73
2022/11/15 07:34:12;;;;;;;20.37;16.63;;;;;;;;;;5078257;28;20457;-74
2022/11/15 07:37:06;;;;;;;18.80;16.63;;;;;;;;;;5079124;28;20537;-74
2022/11/15 07:39:56;;;;;;;16.30;14.63;;;;;;;;;;5077673;28;20450;-73
2022/11/15 07:42:56;;;;;;;20.00;16.67;;;;;;;;;;5072249;28;20484;-74
2022/11/15 07:45:46;;;;;;;20.03;16.73;;;;;;;;;;5074149;28;20469;-73
2022/11/15 07:48:45;;;;;;;19.23;16.10;;;;;;;;;;5083352;28;20515;-73
2022/11/15 07:51:35;;;;;;;17.60;15.70;;;;;;;;;;5078852;28;20468;-73
2022/11/15 07:54:28;;;;;;;20.07;17.17;;;;;;;;;;5076655;28;20532;-73
2022/11/15 07:57:23;;;;;;;19.10;16.47;;;;;;;;;;5079745;28;21089;-73
2022/11/15 08:00:18;;;;;;;23.37;17.20;;;;;;;;;;5070829;28;20799;-73
2022/11/15 08:03:10;;;;;;;23.57;18.63;;;;;;;;;;5076997;28;20462;-74
2022/11/15 08:06:02;;;;;;;22.90;15.70;;;;;;;;;;5076713;28;21022;-74
2022/11/15 08:08:56;;;;;;;19.00;16.73;;;;;;;;;;5078327;28;20449;-73
2022/11/15 08:11:45;;;;;;;20.00;16.80;;;;;;;;;;5074256;28;20477;-73
2022/11/15 08:14:34;;;;;;;20.83;16.60;;;;;;;;;;5080839;28;20454;-73
2022/11/15 08:17:23;;;;;;;19.07;16.20;;;;;;;;;;5078725;28;20469;-73
2022/11/15 08:20:15;;;;;;;18.20;15.70;;;;;;;;;;5073593;28;20467;-74
2022/11/15 08:23:09;;;;;;;18.80;16.80;;;;;;;;;;5079351;28;20508;-73
2022/11/15 08:26:04;;;;;;;19.40;16.87;;;;;;;;;;5077809;28;20567;-74
2022/11/15 08:28:55;;;;;;;20.30;17.13;;;;;;;;;;5076585;28;20689;-73
2022/11/15 08:31:45;;;;;;;20.97;17.13;;;;;;;;;;5065623;28;20496;-74
2022/11/15 08:34:35;;;;;;;19.30;16.27;;;;;;;;;;5077825;28;20457;-74
2022/11/15 08:37:27;;;;;;;20.70;16.73;;;;;;;;;;5078797;28;20472;-73
2022/11/15 08:40:19;;;;;;;21.70;16.93;;;;;;;;;;5071414;28;20468;-74
2022/11/15 08:43:09;;;;;;;19.33;16.27;;;;;;;;;;5078470;28;20456;-73
2022/11/15 08:46:09;;;;;;;21.83;17.33;;;;;;;;;;5072383;28;20997;-74
2022/11/15 08:49:03;;;;;;;20.87;16.90;;;;;;;;;;5078629;28;20491;-74
2022/11/15 08:51:54;;;;;;;21.00;17.00;;;;;;;;;;5077876;28;20849;-73
2022/11/15 08:54:43;;;;;;;20.33;16.23;;;;;;;;;;5074440;28;20956;-73
2022/11/15 08:57:35;;;;;;;25.57;16.97;;;;;;;;;;5075900;28;20450;-74
2022/11/15 09:00:32;;;;;;;19.60;16.57;;;;;;;;;;5072002;28;20443;-73
2022/11/15 09:03:21;;;;;;;19.97;16.73;;;;;;;;;;5075194;28;20450;-73
2022/11/15 09:06:12;;;;;;;22.67;17.40;;;;;;;;;;5075940;28;20456;-73
2022/11/15 09:09:01;;;;;;;17.80;15.90;;;;;;;;;;5072851;28;20457;-74
2022/11/15 09:11:55;;;;;;;19.77;16.53;;;;;;;;;;5075202;28;20482;-73
2022/11/15 09:14:50;;;;;;;18.80;16.80;;;;;;;;;;5074412;28;20454;-73
2022/11/15 09:17:43;;;;;;;20.30;17.20;;;;;;;;;;5077872;28;20979;-74
2022/11/15 09:20:33;;;;;;;18.53;16.27;;;;;;;;;;5074015;28;20553;-74
2022/11/15 09:23:26;;;;;;;18.70;16.70;;;;;;;;;;5077518;28;20458;-74
2022/11/15 09:26:17;;;;;;;20.20;16.00;;;;;;;;;;5077133;28;20857;-74
2022/11/15 09:29:10;;;;;;;17.77;15.90;;;;;;;;;;5079833;28;21169;-73
2022/11/15 09:32:00;;;;;;;20.67;17.17;;;;;;;;;;5079528;28;20477;-73
2022/11/15 09:35:09;;;;;;;23.60;16.90;;;;;;;;;;5082759;28;20586;-73
2022/11/15 09:38:01;;;;;;;18.10;15.90;;;;;;;;;;5081638;28;20480;-74
2022/11/15 09:41:00;;;;;;;17.70;15.50;;;;;;;;;;5075519;28;20480;-73
2022/11/15 09:43:54;;;;;;;19.43;16.47;;;;;;;;;;5070496;28;20461;-73
2022/11/15 09:46:53;;;;;;;18.93;15.90;;;;;;;;;;5083805;28;20453;-73
2022/11/15 09:49:43;;;;;;;18.73;15.73;;;;;;;;;;5079076;28;20458;-73
2022/11/15 09:52:35;;;;;;;19.70;15.97;;;;;;;;;;5080358;28;20843;-73
2022/11/15 09:55:28;;;;;;;16.97;14.87;;;;;;;;;;5083126;28;20458;-74
2022/11/15 09:58:27;;;;;;;19.37;15.80;;;;;;;;;;5081108;28;20459;-74
2022/11/15 10:01:24;;;;;;;17.67;15.47;;;;;;;;;;5072829;28;20489;-72
2022/11/15 10:04:18;;;;;;;19.37;16.03;;;;;;;;;;5082268;28;20472;-74
2022/11/15 10:07:15;;;;;;;18.83;16.83;;;;;;;;;;5078616;28;20996;-74
2022/11/15 10:10:09;;;;;;;19.10;15.73;;;;;;;;;;5074726;28;20446;-74
2022/11/15 10:13:00;;;;;;;18.57;16.37;;;;;;;;;;5075176;28;20495;-74
2022/11/15 10:16:04;;;;;;;19.90;15.90;;;;;;;;;;5082396;28;20519;-74
2022/11/15 10:18:57;;;;;;;18.33;15.97;;;;;;;;;;5080869;28;20450;-74
2022/11/15 10:21:52;;;;;;;17.67;15.87;;;;;;;;;;5083075;28;20493;-74
2022/11/15 10:24:43;;;;;;;17.80;15.90;;;;;;;;;;5079775;28;20466;-74
2022/11/15 10:27:37;;;;;;;16.40;14.40;;;;;;;;;;5080071;28;20447;-74
2022/11/15 10:30:34;;;;;;;18.40;15.00;;;;;;;;;;5074743;28;20486;-74
2022/11/15 10:33:33;;;;;;;15.67;14.07;;;;;;;;;;5082718;28;20465;-73
2022/11/15 10:36:32;;;;;;;16.50;14.77;;;;;;;;;;5080214;28;20449;-74
2022/11/15 10:39:23;;;;;;;17.73;15.83;;;;;;;;;;5077767;28;20447;-73
2022/11/15 10:42:19;;;;;;;19.70;14.80;;;;;;;;;;5070641;28;20506;-73
2022/11/15 10:45:23;;;;;;;16.23;14.53;;;;;;;;;;5074032;28;20481;-73
2022/11/15 10:48:22;;;;;;;18.97;15.20;;;;;;;;;;5081725;28;20478;-74
2022/11/15 10:51:22;;;;;;;16.53;14.73;;;;;;;;;;5079042;28;20478;-73
2022/11/15 10:54:13;;;;;;;17.13;15.33;;;;;;;;;;5080511;28;20465;-73
2022/11/15 10:57:14;;;;;;;16.43;14.30;;;;;;;;;;5077238;28;20571;-73
2022/11/15 11:00:07;;;;;;;16.50;14.80;;;;;;;;;;5079789;28;20986;-74
2022/11/15 11:03:00;;;;;;;16.87;14.97;;;;;;;;;;5080590;28;21208;-73
2022/11/15 11:06:04;;;;;;;16.50;13.53;;;;;;;;;;5079497;28;20481;-74
2022/11/15 11:08:59;;;;;;;15.40;13.33;;;;;;;;;;5077694;28;20476;-73
2022/11/15 11:11:49;;;;;;;13.93;12.00;;;;;;;;;;5077056;28;20470;-73
2022/11/15 11:14:43;;;;;;;16.93;13.83;;;;;;;;;;5075908;28;21964;-72
2022/11/15 11:17:37;;;;;;;14.07;12.63;;;;;;;;;;5079989;28;20458;-72
2022/11/15 11:20:32;;;;;;;15.10;12.40;;;;;;;;;;5079127;28;20470;-72
2022/11/15 11:23:30;;;;;;;14.87;13.37;;;;;;;;;;5081836;28;20447;-72
2022/11/15 11:26:37;;;;;;;13.77;12.00;;;;;;;;;;5081320;28;20468;-72
2022/11/15 11:29:34;;;;;;;13.30;12.00;;;;;;;;;;5078382;28;20548;-72
2022/11/15 11:32:36;;;;;;;14.37;12.80;;;;;;;;;;5081079;28;20481;-72
2022/11/15 11:35:31;;;;;;;12.20;10.63;;;;;;;;;;5079929;28;20456;-73
2022/11/15 11:38:26;;;;;;;17.10;11.97;;;;;;;;;;5078876;28;20480;-73
2022/11/15 11:41:19;;;;;;;13.43;12.10;;;;;;;;;;5078929;28;20590;-72
2022/11/15 11:44:18;;;;;;;13.20;11.90;;;;;;;;;;5075709;28;20839;-73
2022/11/15 11:47:10;;;;;;;13.70;11.30;;;;;;;;;;5079996;28;20478;-72
2022/11/15 11:50:07;;;;;;;12.10;10.83;;;;;;;;;;5079996;28;20452;-73
2022/11/15 11:53:02;;;;;;;15.90;11.50;;;;;;;;;;5079771;28;20574;-73
2022/11/15 11:55:55;;;;;;;12.87;11.57;;;;;;;;;;5079200;28;20515;-73
2022/11/15 11:58:48;;;;;;;13.33;11.93;;;;;;;;;;5077391;28;20457;-73
2022/11/15 12:01:43;;;;;;;13.47;12.10;;;;;;;;;;5079561;28;20481;-73
2022/11/15 12:04:41;;;;;;;12.77;11.40;;;;;;;;;;5069599;28;21170;-73
2022/11/15 12:07:32;;;;;;;15.20;11.87;;;;;;;;;;5076069;28;20472;-73
2022/11/15 12:10:24;;;;;;;13.03;11.73;;;;;;;;;;5074485;28;20976;-72
2022/11/15 12:13:15;;;;;;;16.93;12.03;;;;;;;;;;5070437;28;20964;-73
2022/11/15 12:16:20;;;;;;;13.90;12.50;;;;;;;;;;5075076;28;21081;-72
2022/11/15 12:19:16;;;;;;;12.63;11.50;;;;;;;;;;5076063;28;20519;-73
2022/11/15 12:22:10;;;;;;;13.33;12.00;;;;;;;;;;5076309;28;20473;-73
2022/11/15 12:25:09;;;;;;;15.13;11.43;;;;;;;;;;5081010;28;20454;-73
2022/11/15 12:28:03;;;;;;;12.80;11.50;;;;;;;;;;5082977;28;20450;-73
2022/11/15 12:31:00;;;;;;;12.37;10.10;;;;;;;;;;5079299;28;20489;-72
2022/11/15 12:33:51;;;;;;;11.93;10.73;;;;;;;;;;5083432;28;20441;-72
2022/11/15 12:36:47;;;;;;;15.40;11.60;;;;;;;;;;5079170;28;20533;-72
2022/11/15 12:39:58;;;;;;;12.93;11.30;;;;;;;;;;5084943;28;20457;-73
2022/11/15 12:43:06;;;;;;;11.40;10.17;;;;;;;;;;5076703;28;20479;-72
2022/11/15 12:45:54;;;;;;;12.10;10.70;;;;;;;;;;5073651;28;20544;-72
2022/11/15 12:48:56;;;;;;;11.83;10.70;;;;;;;;;;5071828;28;20454;-73
2022/11/15 12:52:09;;;;;;;12.53;11.23;;;;;;;;;;5077531;28;20467;-73
2022/11/15 12:55:01;;;;;;;11.70;10.50;;;;;;;;;;5077621;28;20826;-73
2022/11/15 12:57:51;;;;;;;12.63;10.20;;;;;;;;;;5074988;28;20822;-73
2022/11/15 13:00:45;;;;;;;11.23;10.03;;;;;;;;;;5075666;28;20469;-73
2022/11/15 13:03:40;;;;;;;11.43;10.33;;;;;;;;;;5079302;28;20461;-73
2022/11/15 13:06:39;;;;;;;11.63;10.27;;;;;;;;;;5076953;28;20474;-73
2022/11/15 13:09:59;;;;;;;12.40;11.20;;;;;;;;;;5075623;28;21030;-76
2022/11/15 13:13:02;;;;;;;11.37;10.17;;;;;;;;;;5059491;28;20470;-72
2022/11/15 13:15:56;;;;;;;12.93;10.43;;;;;;;;;;5085749;28;20501;-72
2022/11/15 13:18:54;;;;;;;11.17;9.97;;;;;;;;;;5082240;28;20444;-73
2022/11/15 13:24:58;;;;;;;12.37;10.70;;;;;;;;;;5083182;28;20446;-72
2022/11/15 13:27:50;;;;;;;12.03;10.80;;;;;;;;;;5074736;28;20474;-73
2022/11/15 13:30:40;;;;;;;11.70;10.50;;;;;;;;;;5073373;28;21005;-73
2022/11/15 13:33:32;;;;;;;11.97;10.80;;;;;;;;;;5071873;28;20974;-73
2022/11/15 13:36:28;;;;;;;11.80;10.60;;;;;;;;;;5074311;28;20463;-73
2022/11/15 13:39:27;;;;;;;11.43;10.23;;;;;;;;;;5075930;28;20457;-73
2022/11/15 13:42:18;;;;;;;11.10;9.00;;;;;;;;;;5062468;28;21770;-73
2022/11/15 13:45:07;;;;;;;11.00;9.90;;;;;;;;;;5064275;28;20960;-74
2022/11/15 13:48:06;;;;;;;11.83;10.47;;;;;;;;;;5070091;28;21101;-73
2022/11/15 13:50:59;;;;;;;12.43;11.30;;;;;;;;;;5063897;28;20488;-73
2022/11/15 13:53:53;;;;;;;11.83;10.73;;;;;;;;;;5052937;28;20452;-73
2022/11/15 13:56:48;;;;;;;12.83;10.93;;;;;;;;;;5059398;28;20584;-73
2022/11/15 13:59:46;;;;;;;10.80;9.70;;;;;;;;;;5052899;28;20446;-73
2022/11/15 14:02:38;;;;;;;11.53;10.53;;;;;;;;;;5053504;28;20486;-73
2022/11/15 14:05:38;;;;;;;11.80;10.60;;;;;;;;;;5055867;28;20548;-74
2022/11/15 14:08:28;;;;;;;13.03;11.40;;;;;;;;;;5058320;28;20446;-73
2022/11/15 14:11:20;;;;;;;11.70;10.43;;;;;;;;;;5055722;28;20488;-73
2022/11/15 14:14:15;;;;;;;11.30;10.20;;;;;;;;;;5066111;28;20458;-73
2022/11/15 14:17:04;;;;;;;12.03;10.83;;;;;;;;;;5068988;28;20518;-73
2022/11/15 14:19:54;;;;;;;11.43;10.33;;;;;;;;;;5053566;28;20528;-72
2022/11/15 14:22:53;;;;;;;11.40;10.30;;;;;;;;;;5055071;28;20489;-73
2022/11/15 14:25:53;;;;;;;11.40;10.40;;;;;;;;;;5061395;28;20454;-73
2022/11/15 14:28:43;;;;;;;12.53;10.50;;;;;;;;;;5057231;28;20461;-72
2022/11/15 14:31:35;;;;;;;12.27;10.00;;;;;;;;;;5061844;28;20499;-73
2022/11/15 14:34:36;;;;;;;11.53;10.10;;;;;;;;;;5054557;28;20479;-73
2022/11/15 14:37:27;;;;;;;10.40;9.40;;;;;;;;;;5060689;28;20464;-71
2022/11/15 14:40:22;;;;;;;10.50;9.40;;;;;;;;;;5058495;28;20556;-72
2022/11/15 14:43:14;;;;;;;12.73;10.30;;;;;;;;;;5056537;28;20453;-73
2022/11/15 14:46:04;;;;;;;10.50;9.50;;;;;;;;;;5065039;28;20458;-73
2022/11/15 14:48:56;;;;;;;12.50;10.77;;;;;;;;;;5066140;28;20480;-72
2022/11/15 14:51:48;;;;;;;11.87;10.67;;;;;;;;;;5069682;28;20493;-72
2022/11/15 14:54:40;;;;;;;10.70;9.70;;;;;;;;;;5056031;28;21197;-73
2022/11/15 14:57:33;;;;;;;12.40;9.97;;;;;;;;;;5065502;28;20450;-72
2022/11/15 15:00:26;;;;;;;11.33;10.23;;;;;;;;;;5060772;28;21029;-72
2022/11/15 15:03:22;;;;;;;12.03;10.00;;;;;;;;;;5060362;28;20468;-72
2022/11/15 15:06:30;;;;;;;13.37;9.97;;;;;;;;;;5066099;28;20981;-73
2022/11/15 15:09:21;;;;;;;12.17;11.07;;;;;;;;;;5070230;28;20444;-73
2022/11/15 15:12:19;;;;;;;11.87;10.53;;;;;;;;;;5063928;28;20504;-73
2022/11/15 15:15:26;;;;;;;10.70;9.60;;;;;;;;;;5058719;28;20453;-72
2022/11/15 15:18:17;;;;;;;10.77;9.77;;;;;;;;;;5060208;28;20538;-73
2022/11/15 15:21:27;;;;;;;10.87;9.57;;;;;;;;;;5076310;28;20477;-73
2022/11/15 15:24:27;;;;;;;10.60;9.70;;;;;;;;;;5058953;28;20449;-73
2022/11/15 15:27:24;;;;;;;11.70;10.50;;;;;;;;;;5068668;28;21279;-72
2022/11/15 15:30:14;;;;;;;11.00;10.00;;;;;;;;;;5071985;28;21304;-73
2022/11/15 15:33:07;;;;;;;14.10;11.57;;;;;;;;;;5064172;28;20456;-72
2022/11/15 15:35:56;;;;;;;12.00;10.30;;;;;;;;;;5076682;28;20457;-73
2022/11/15 15:38:46;;;;;;;10.80;9.23;;;;;;;;;;5075444;28;20456;-73
2022/11/15 15:41:35;;;;;;;11.00;9.90;;;;;;;;;;5074708;28;20958;-72
2022/11/15 15:44:25;;;;;;;10.67;9.57;;;;;;;;;;5076477;28;21568;-73
2022/11/15 15:47:17;;;;;;;10.37;9.37;;;;;;;;;;5053022;28;20481;-74
2022/11/15 15:50:23;;;;;;;11.00;9.80;;;;;;;;;;5070765;28;20462;-73
2022/11/15 15:53:19;;;;;;;10.67;9.67;;;;;;;;;;5061502;28;20481;-73
2022/11/15 15:56:12;;;;;;;11.50;10.40;;;;;;;;;;5074514;28;20453;-73
2022/11/15 15:59:09;;;;;;;11.17;10.07;;;;;;;;;;5075683;28;20445;-72
2022/11/15 16:02:01;;;;;;;14.97;9.50;;;;;;;;;;5076205;28;20840;-73
2022/11/15 16:04:52;;;;;;;9.93;8.93;;;;;;;;;;5070986;28;20482;-73
2022/11/15 16:07:43;;;;;;;18.43;10.37;;;;;;;;;;5072240;28;21812;-73
2022/11/15 16:10:43;;;;;;;11.50;10.30;;;;;;;;;;5074447;28;20477;-72
2022/11/15 16:13:34;;;;;;;11.60;10.50;;;;;;;;;;5074571;28;20456;-73
2022/11/15 16:16:25;;;;;;;11.07;9.97;;;;;;;;;;5069987;28;21307;-72
2022/11/15 16:19:16;;;;;;;11.87;9.90;;;;;;;;;;5073773;28;20984;-71
2022/11/15 16:22:09;;;;;;;11.40;10.23;;;;;;;;;;5065232;28;20559;-72
2022/11/15 16:24:59;;;;;;;11.63;10.37;;;;;;;;;;5072025;28;20453;-72
2022/11/15 16:27:49;;;;;;;10.77;9.67;;;;;;;;;;5076760;28;20466;-71
2022/11/15 16:30:42;;;;;;;11.80;10.47;;;;;;;;;;5077573;28;20462;-71
2022/11/15 16:33:31;;;;;;;11.40;10.30;;;;;;;;;;5077786;28;20940;-72
2022/11/15 16:36:23;;;;;;;13.00;11.67;;;;;;;;;;5074997;28;20534;-72
2022/11/15 16:39:19;;;;;;;12.40;11.10;;;;;;;;;;5080582;28;20461;-72
2022/11/15 16:42:18;;;;;;;14.87;13.33;;;;;;;;;;5061218;28;20493;-72
2022/11/15 16:45:14;;;;;;;15.07;13.50;;;;;;;;;;5064170;28;20461;-71
2022/11/15 16:48:06;;;;;;;13.03;10.40;;;;;;;;;;5072033;28;20477;-73
2022/11/15 16:50:58;;;;;;;11.83;10.70;;;;;;;;;;5074053;28;20481;-73
2022/11/15 16:53:53;;;;;;;11.13;10.03;;;;;;;;;;5073707;28;20623;-73
2022/11/15 16:56:48;;;;;;;11.50;10.30;;;;;;;;;;5074084;28;20460;-73
2022/11/15 16:59:48;;;;;;;14.50;11.60;;;;;;;;;;5090599;28;20455;-72
2022/11/15 17:02:38;;;;;;;12.03;10.83;;;;;;;;;;5095532;28;20489;-71
2022/11/15 17:05:31;;;;;;;12.73;10.87;;;;;;;;;;5096934;28;20453;-72
2022/11/15 17:08:23;;;;;;;12.47;10.43;;;;;;;;;;5087131;28;21075;-71
2022/11/15 17:11:22;;;;;;;12.30;11.20;;;;;;;;;;5093635;28;20487;-72
2022/11/15 17:14:12;;;;;;;12.30;10.77;;;;;;;;;;5085516;28;20492;-72